sensor_id;sensor_type;location;lat;lon;timestamp;P1;durP1;ratioP1;P2;durP2;ratioP2
22144;SDS011;11238;48.730;11.566;2023-07-13T00:02:02;4.15;;;3.45;;
22144;SDS011;11238;48.730;11.566;2023-07-13T00:04:28;4.43;;;3.67;;
22144;SDS011;11238;48.730;11.566;2023-07-13T00:06:54;7.40;;;3.85;;
22144;SDS011;11238;48.730;11.566;2023-07-13T00:09:20;4.20;;;3.38;;
22144;SDS011;11238;48.730;11.566;2023-07-13T00:11:50;5.28;;;3.50;;
22144;SDS011;11238;48.730;11.566;2023-07-13T00:14:20;4.35;;;3.80;;
22144;SDS011;11238;48.730;11.566;2023-07-13T00:16:46;6.57;;;3.95;;
22144;SDS011;11238;48.730;11.566;2023-07-13T00:19:12;8.02;;;3.60;;
22144;SDS011;11238;48.730;11.566;2023-07-13T00:21:39;4.60;;;3.75;;
22144;SDS011;11238;48.730;11.566;2023-07-13T00:24:06;6.35;;;3.90;;
22144;SDS011;11238;48.730;11.566;2023-07-13T00:26:33;4.60;;;3.47;;
22144;SDS011;11238;48.730;11.566;2023-07-13T00:29:00;9.35;;;3.47;;
22144;SDS011;11238;48.730;11.566;2023-07-13T00:31:25;4.32;;;3.40;;
22144;SDS011;11238;48.730;11.566;2023-07-13T00:33:51;6.55;;;3.80;;
22144;SDS011;11238;48.730;11.566;2023-07-13T00:36:17;7.13;;;3.67;;
22144;SDS011;11238;48.730;11.566;2023-07-13T00:38:43;7.30;;;4.03;;
22144;SDS011;11238;48.730;11.566;2023-07-13T00:41:09;5.95;;;3.75;;
22144;SDS011;11238;48.730;11.566;2023-07-13T00:43:35;5.47;;;3.60;;
22144;SDS011;11238;48.730;11.566;2023-07-13T00:46:09;6.43;;;3.55;;
22144;SDS011;11238;48.730;11.566;2023-07-13T00:48:38;10.82;;;4.40;;
22144;SDS011;11238;48.730;11.566;2023-07-13T00:51:05;5.80;;;3.50;;
22144;SDS011;11238;48.730;11.566;2023-07-13T00:53:31;8.05;;;3.97;;
22144;SDS011;11238;48.730;11.566;2023-07-13T00:55:58;5.22;;;4.18;;
22144;SDS011;11238;48.730;11.566;2023-07-13T00:58:25;11.25;;;4.60;;
22144;SDS011;11238;48.730;11.566;2023-07-13T01:00:53;7.65;;;4.97;;
22144;SDS011;11238;48.730;11.566;2023-07-13T01:03:19;8.38;;;4.30;;
22144;SDS011;11238;48.730;11.566;2023-07-13T01:05:46;8.35;;;3.80;;
22144;SDS011;11238;48.730;11.566;2023-07-13T01:08:14;9.60;;;3.90;;
22144;SDS011;11238;48.730;11.566;2023-07-13T01:10:40;8.18;;;3.80;;
22144;SDS011;11238;48.730;11.566;2023-07-13T01:13:07;8.43;;;3.90;;
22144;SDS011;11238;48.730;11.566;2023-07-13T01:15:39;13.32;;;3.70;;
22144;SDS011;11238;48.730;11.566;2023-07-13T01:18:11;11.48;;;4.25;;
22144;SDS011;11238;48.730;11.566;2023-07-13T01:23:21;7.30;;;3.97;;
22144;SDS011;11238;48.730;11.566;2023-07-13T01:25:48;6.80;;;4.18;;
22144;SDS011;11238;48.730;11.566;2023-07-13T01:28:14;13.43;;;4.60;;
22144;SDS011;11238;48.730;11.566;2023-07-13T01:30:42;9.38;;;4.15;;
22144;SDS011;11238;48.730;11.566;2023-07-13T01:33:10;9.32;;;4.63;;
22144;SDS011;11238;48.730;11.566;2023-07-13T01:35:37;8.75;;;3.95;;
22144;SDS011;11238;48.730;11.566;2023-07-13T01:38:04;7.25;;;4.28;;
22144;SDS011;11238;48.730;11.566;2023-07-13T01:40:30;8.52;;;4.68;;
22144;SDS011;11238;48.730;11.566;2023-07-13T01:42:57;7.53;;;4.20;;
22144;SDS011;11238;48.730;11.566;2023-07-13T01:45:23;7.60;;;4.32;;
22144;SDS011;11238;48.730;11.566;2023-07-13T01:47:49;9.63;;;4.38;;
22144;SDS011;11238;48.730;11.566;2023-07-13T01:50:15;7.25;;;4.25;;
22144;SDS011;11238;48.730;11.566;2023-07-13T01:52:42;6.15;;;4.25;;
22144;SDS011;11238;48.730;11.566;2023-07-13T01:55:07;9.73;;;4.68;;
22144;SDS011;11238;48.730;11.566;2023-07-13T01:57:33;11.18;;;4.95;;
22144;SDS011;11238;48.730;11.566;2023-07-13T02:00:00;11.35;;;4.47;;
22144;SDS011;11238;48.730;11.566;2023-07-13T02:02:40;12.07;;;4.45;;
22144;SDS011;11238;48.730;11.566;2023-07-13T02:05:08;11.68;;;4.97;;
22144;SDS011;11238;48.730;11.566;2023-07-13T02:07:34;12.07;;;4.50;;
22144;SDS011;11238;48.730;11.566;2023-07-13T02:10:02;9.80;;;4.35;;
22144;SDS011;11238;48.730;11.566;2023-07-13T02:12:28;15.13;;;4.95;;
22144;SDS011;11238;48.730;11.566;2023-07-13T02:14:55;8.80;;;4.82;;
22144;SDS011;11238;48.730;11.566;2023-07-13T02:17:21;15.13;;;5.38;;
22144;SDS011;11238;48.730;11.566;2023-07-13T02:19:47;9.60;;;4.78;;
22144;SDS011;11238;48.730;11.566;2023-07-13T02:22:13;10.18;;;4.93;;
22144;SDS011;11238;48.730;11.566;2023-07-13T02:24:39;9.70;;;4.90;;
22144;SDS011;11238;48.730;11.566;2023-07-13T02:27:05;12.52;;;4.90;;
22144;SDS011;11238;48.730;11.566;2023-07-13T02:29:31;8.25;;;5.15;;
22144;SDS011;11238;48.730;11.566;2023-07-13T02:31:57;9.43;;;5.35;;
22144;SDS011;11238;48.730;11.566;2023-07-13T02:34:23;11.63;;;5.63;;
22144;SDS011;11238;48.730;11.566;2023-07-13T02:36:48;13.38;;;4.90;;
22144;SDS011;11238;48.730;11.566;2023-07-13T02:39:14;11.98;;;6.40;;
22144;SDS011;11238;48.730;11.566;2023-07-13T02:41:40;16.52;;;6.45;;
22144;SDS011;11238;48.730;11.566;2023-07-13T02:44:06;11.45;;;5.32;;
22144;SDS011;11238;48.730;11.566;2023-07-13T02:46:34;8.15;;;4.93;;
22144;SDS011;11238;48.730;11.566;2023-07-13T02:49:02;11.68;;;5.45;;
22144;SDS011;11238;48.730;11.566;2023-07-13T02:51:29;8.90;;;5.65;;
22144;SDS011;11238;48.730;11.566;2023-07-13T02:53:55;17.08;;;5.85;;
22144;SDS011;11238;48.730;11.566;2023-07-13T02:56:23;12.57;;;5.40;;
22144;SDS011;11238;48.730;11.566;2023-07-13T02:58:50;13.50;;;6.10;;
22144;SDS011;11238;48.730;11.566;2023-07-13T03:01:16;11.80;;;5.68;;
22144;SDS011;11238;48.730;11.566;2023-07-13T03:03:45;10.52;;;5.70;;
22144;SDS011;11238;48.730;11.566;2023-07-13T03:06:12;11.50;;;5.47;;
22144;SDS011;11238;48.730;11.566;2023-07-13T03:08:46;7.85;;;5.40;;
22144;SDS011;11238;48.730;11.566;2023-07-13T03:11:16;7.95;;;5.47;;
22144;SDS011;11238;48.730;11.566;2023-07-13T03:13:48;12.50;;;6.45;;
22144;SDS011;11238;48.730;11.566;2023-07-13T03:16:15;12.50;;;5.82;;
22144;SDS011;11238;48.730;11.566;2023-07-13T03:18:43;9.93;;;5.38;;
22144;SDS011;11238;48.730;11.566;2023-07-13T03:21:10;13.80;;;5.93;;
22144;SDS011;11238;48.730;11.566;2023-07-13T03:23:38;10.45;;;5.97;;
22144;SDS011;11238;48.730;11.566;2023-07-13T03:26:14;10.93;;;6.15;;
22144;SDS011;11238;48.730;11.566;2023-07-13T03:28:44;14.55;;;6.15;;
22144;SDS011;11238;48.730;11.566;2023-07-13T03:31:15;12.05;;;6.22;;
22144;SDS011;11238;48.730;11.566;2023-07-13T03:33:44;17.50;;;5.97;;
22144;SDS011;11238;48.730;11.566;2023-07-13T03:36:15;10.48;;;5.43;;
22144;SDS011;11238;48.730;11.566;2023-07-13T03:38:47;13.55;;;5.68;;
22144;SDS011;11238;48.730;11.566;2023-07-13T03:41:16;16.23;;;6.68;;
22144;SDS011;11238;48.730;11.566;2023-07-13T03:43:43;14.20;;;5.30;;
22144;SDS011;11238;48.730;11.566;2023-07-13T03:46:10;14.38;;;6.18;;
22144;SDS011;11238;48.730;11.566;2023-07-13T03:48:36;10.93;;;6.03;;
22144;SDS011;11238;48.730;11.566;2023-07-13T03:51:02;9.15;;;5.18;;
22144;SDS011;11238;48.730;11.566;2023-07-13T03:53:28;13.55;;;6.50;;
22144;SDS011;11238;48.730;11.566;2023-07-13T03:55:54;10.13;;;6.13;;
22144;SDS011;11238;48.730;11.566;2023-07-13T03:58:26;14.95;;;6.00;;
22144;SDS011;11238;48.730;11.566;2023-07-13T04:01:05;13.55;;;6.72;;
22144;SDS011;11238;48.730;11.566;2023-07-13T04:03:33;17.23;;;5.93;;
22144;SDS011;11238;48.730;11.566;2023-07-13T04:06:00;17.65;;;6.43;;
22144;SDS011;11238;48.730;11.566;2023-07-13T04:08:28;11.38;;;5.43;;
22144;SDS011;11238;48.730;11.566;2023-07-13T04:11:02;16.17;;;5.70;;
22144;SDS011;11238;48.730;11.566;2023-07-13T04:13:30;12.57;;;5.90;;
22144;SDS011;11238;48.730;11.566;2023-07-13T04:15:55;13.50;;;4.88;;
22144;SDS011;11238;48.730;11.566;2023-07-13T04:18:21;14.30;;;5.70;;
22144;SDS011;11238;48.730;11.566;2023-07-13T04:20:47;8.80;;;4.80;;
22144;SDS011;11238;48.730;11.566;2023-07-13T04:23:15;11.82;;;4.68;;
22144;SDS011;11238;48.730;11.566;2023-07-13T04:25:46;10.55;;;4.53;;
22144;SDS011;11238;48.730;11.566;2023-07-13T04:28:15;9.07;;;4.60;;
22144;SDS011;11238;48.730;11.566;2023-07-13T04:30:42;10.48;;;3.95;;
22144;SDS011;11238;48.730;11.566;2023-07-13T04:33:08;11.82;;;4.63;;
22144;SDS011;11238;48.730;11.566;2023-07-13T04:35:35;12.88;;;4.25;;
22144;SDS011;11238;48.730;11.566;2023-07-13T04:38:01;10.23;;;4.68;;
22144;SDS011;11238;48.730;11.566;2023-07-13T04:40:27;8.82;;;4.20;;
22144;SDS011;11238;48.730;11.566;2023-07-13T04:42:54;11.93;;;4.07;;
22144;SDS011;11238;48.730;11.566;2023-07-13T04:45:21;12.50;;;4.80;;
22144;SDS011;11238;48.730;11.566;2023-07-13T04:47:49;10.15;;;4.70;;
22144;SDS011;11238;48.730;11.566;2023-07-13T04:50:15;14.68;;;4.70;;
22144;SDS011;11238;48.730;11.566;2023-07-13T04:52:46;13.75;;;4.38;;
22144;SDS011;11238;48.730;11.566;2023-07-13T04:55:12;11.65;;;4.10;;
22144;SDS011;11238;48.730;11.566;2023-07-13T04:57:38;11.63;;;3.88;;
22144;SDS011;11238;48.730;11.566;2023-07-13T05:00:04;9.90;;;4.25;;
22144;SDS011;11238;48.730;11.566;2023-07-13T05:02:31;11.90;;;3.90;;
22144;SDS011;11238;48.730;11.566;2023-07-13T05:04:57;12.13;;;4.30;;
22144;SDS011;11238;48.730;11.566;2023-07-13T05:07:23;11.40;;;3.85;;
22144;SDS011;11238;48.730;11.566;2023-07-13T05:09:50;10.52;;;3.35;;
22144;SDS011;11238;48.730;11.566;2023-07-13T05:12:15;6.50;;;3.50;;
22144;SDS011;11238;48.730;11.566;2023-07-13T05:14:43;6.25;;;3.35;;
22144;SDS011;11238;48.730;11.566;2023-07-13T05:17:09;9.15;;;3.30;;
22144;SDS011;11238;48.730;11.566;2023-07-13T05:19:35;19.45;;;3.97;;
22144;SDS011;11238;48.730;11.566;2023-07-13T05:22:01;12.32;;;3.88;;
22144;SDS011;11238;48.730;11.566;2023-07-13T05:24:29;11.30;;;4.20;;
22144;SDS011;11238;48.730;11.566;2023-07-13T05:26:55;10.90;;;3.20;;
22144;SDS011;11238;48.730;11.566;2023-07-13T05:29:39;7.68;;;3.25;;
22144;SDS011;11238;48.730;11.566;2023-07-13T05:32:06;11.85;;;3.10;;
22144;SDS011;11238;48.730;11.566;2023-07-13T05:34:31;8.48;;;3.05;;
22144;SDS011;11238;48.730;11.566;2023-07-13T05:36:58;10.02;;;3.08;;
22144;SDS011;11238;48.730;11.566;2023-07-13T05:39:24;9.90;;;2.97;;
22144;SDS011;11238;48.730;11.566;2023-07-13T05:41:51;6.38;;;2.85;;
22144;SDS011;11238;48.730;11.566;2023-07-13T05:44:17;7.82;;;2.90;;
22144;SDS011;11238;48.730;11.566;2023-07-13T05:46:44;8.95;;;3.30;;
22144;SDS011;11238;48.730;11.566;2023-07-13T05:49:10;9.43;;;3.17;;
22144;SDS011;11238;48.730;11.566;2023-07-13T05:51:36;9.88;;;3.20;;
22144;SDS011;11238;48.730;11.566;2023-07-13T05:54:03;9.32;;;3.03;;
22144;SDS011;11238;48.730;11.566;2023-07-13T05:56:28;5.85;;;2.90;;
22144;SDS011;11238;48.730;11.566;2023-07-13T05:58:54;5.50;;;2.65;;
22144;SDS011;11238;48.730;11.566;2023-07-13T06:01:20;3.92;;;2.60;;
22144;SDS011;11238;48.730;11.566;2023-07-13T06:03:47;8.02;;;2.80;;
22144;SDS011;11238;48.730;11.566;2023-07-13T06:06:14;8.85;;;2.65;;
22144;SDS011;11238;48.730;11.566;2023-07-13T06:08:41;6.32;;;2.58;;
22144;SDS011;11238;48.730;11.566;2023-07-13T06:11:08;7.68;;;2.50;;
22144;SDS011;11238;48.730;11.566;2023-07-13T06:13:36;6.18;;;2.67;;
22144;SDS011;11238;48.730;11.566;2023-07-13T06:16:02;2.85;;;2.30;;
22144;SDS011;11238;48.730;11.566;2023-07-13T06:18:35;12.30;;;2.65;;
22144;SDS011;11238;48.730;11.566;2023-07-13T06:21:06;3.97;;;2.53;;
22144;SDS011;11238;48.730;11.566;2023-07-13T06:23:36;6.88;;;2.53;;
22144;SDS011;11238;48.730;11.566;2023-07-13T06:26:02;6.28;;;2.50;;
22144;SDS011;11238;48.730;11.566;2023-07-13T06:28:30;4.18;;;2.17;;
22144;SDS011;11238;48.730;11.566;2023-07-13T06:30:57;5.70;;;2.55;;
22144;SDS011;11238;48.730;11.566;2023-07-13T06:33:27;5.78;;;2.25;;
22144;SDS011;11238;48.730;11.566;2023-07-13T06:35:53;5.43;;;2.30;;
22144;SDS011;11238;48.730;11.566;2023-07-13T06:38:20;6.90;;;2.35;;
22144;SDS011;11238;48.730;11.566;2023-07-13T06:40:46;5.47;;;2.40;;
22144;SDS011;11238;48.730;11.566;2023-07-13T06:43:15;4.75;;;2.17;;
22144;SDS011;11238;48.730;11.566;2023-07-13T06:45:43;8.02;;;2.53;;
22144;SDS011;11238;48.730;11.566;2023-07-13T06:48:13;9.13;;;2.35;;
22144;SDS011;11238;48.730;11.566;2023-07-13T06:50:39;4.95;;;2.20;;
22144;SDS011;11238;48.730;11.566;2023-07-13T06:53:09;5.20;;;2.05;;
22144;SDS011;11238;48.730;11.566;2023-07-13T06:55:36;6.20;;;2.28;;
22144;SDS011;11238;48.730;11.566;2023-07-13T06:58:02;5.72;;;2.08;;
22144;SDS011;11238;48.730;11.566;2023-07-13T07:00:28;9.65;;;2.00;;
22144;SDS011;11238;48.730;11.566;2023-07-13T07:02:55;3.30;;;2.17;;
22144;SDS011;11238;48.730;11.566;2023-07-13T07:05:21;5.03;;;2.00;;
22144;SDS011;11238;48.730;11.566;2023-07-13T07:07:49;5.03;;;2.60;;
22144;SDS011;11238;48.730;11.566;2023-07-13T07:10:15;5.00;;;2.10;;
22144;SDS011;11238;48.730;11.566;2023-07-13T07:12:41;8.13;;;2.05;;
22144;SDS011;11238;48.730;11.566;2023-07-13T07:15:07;4.88;;;1.80;;
22144;SDS011;11238;48.730;11.566;2023-07-13T07:17:33;4.30;;;2.03;;
22144;SDS011;11238;48.730;11.566;2023-07-13T07:19:59;2.90;;;1.75;;
22144;SDS011;11238;48.730;11.566;2023-07-13T07:22:25;8.18;;;2.10;;
22144;SDS011;11238;48.730;11.566;2023-07-13T07:24:52;4.22;;;2.17;;
22144;SDS011;11238;48.730;11.566;2023-07-13T07:27:19;3.30;;;1.92;;
22144;SDS011;11238;48.730;11.566;2023-07-13T07:29:45;4.22;;;2.08;;
22144;SDS011;11238;48.730;11.566;2023-07-13T07:32:11;4.07;;;1.83;;
22144;SDS011;11238;48.730;11.566;2023-07-13T07:34:36;3.58;;;1.83;;
22144;SDS011;11238;48.730;11.566;2023-07-13T07:37:04;4.15;;;1.70;;
22144;SDS011;11238;48.730;11.566;2023-07-13T07:39:30;4.43;;;2.10;;
22144;SDS011;11238;48.730;11.566;2023-07-13T07:41:57;4.88;;;1.92;;
22144;SDS011;11238;48.730;11.566;2023-07-13T07:44:23;9.98;;;2.05;;
22144;SDS011;11238;48.730;11.566;2023-07-13T07:46:50;4.25;;;1.90;;
22144;SDS011;11238;48.730;11.566;2023-07-13T07:49:15;5.82;;;2.05;;
22144;SDS011;11238;48.730;11.566;2023-07-13T07:51:41;6.88;;;2.00;;
22144;SDS011;11238;48.730;11.566;2023-07-13T07:54:07;4.82;;;2.00;;
22144;SDS011;11238;48.730;11.566;2023-07-13T07:56:34;6.80;;;2.20;;
22144;SDS011;11238;48.730;11.566;2023-07-13T07:59:00;5.47;;;2.03;;
22144;SDS011;11238;48.730;11.566;2023-07-13T08:01:27;7.63;;;2.20;;
22144;SDS011;11238;48.730;11.566;2023-07-13T08:03:52;6.05;;;2.00;;
22144;SDS011;11238;48.730;11.566;2023-07-13T08:06:19;4.35;;;2.10;;
22144;SDS011;11238;48.730;11.566;2023-07-13T08:08:45;6.30;;;1.90;;
22144;SDS011;11238;48.730;11.566;2023-07-13T08:11:11;5.30;;;1.73;;
22144;SDS011;11238;48.730;11.566;2023-07-13T08:13:38;3.42;;;1.88;;
22144;SDS011;11238;48.730;11.566;2023-07-13T08:16:04;4.65;;;1.92;;
22144;SDS011;11238;48.730;11.566;2023-07-13T08:18:31;4.18;;;1.85;;
22144;SDS011;11238;48.730;11.566;2023-07-13T08:20:57;4.57;;;2.13;;
22144;SDS011;11238;48.730;11.566;2023-07-13T08:23:24;5.90;;;2.38;;
22144;SDS011;11238;48.730;11.566;2023-07-13T08:53:49;5.03;;;1.55;;
22144;SDS011;11238;48.730;11.566;2023-07-13T08:56:18;4.63;;;1.67;;
22144;SDS011;11238;48.730;11.566;2023-07-13T08:58:48;4.80;;;1.70;;
22144;SDS011;11238;48.730;11.566;2023-07-13T09:01:22;2.65;;;1.33;;
22144;SDS011;11238;48.730;11.566;2023-07-13T09:06:34;5.82;;;1.60;;
22144;SDS011;11238;48.730;11.566;2023-07-13T09:09:16;9.73;;;1.40;;
22144;SDS011;11238;48.730;11.566;2023-07-13T09:11:56;4.13;;;1.30;;
22144;SDS011;11238;48.730;11.566;2023-07-13T09:17:02;5.55;;;1.60;;
22144;SDS011;11238;48.730;11.566;2023-07-13T09:19:31;8.07;;;1.45;;
22144;SDS011;11238;48.730;11.566;2023-07-13T09:22:01;2.25;;;1.27;;
22144;SDS011;11238;48.730;11.566;2023-07-13T09:24:36;2.83;;;1.30;;
22144;SDS011;11238;48.730;11.566;2023-07-13T09:27:22;3.33;;;1.40;;
22144;SDS011;11238;48.730;11.566;2023-07-13T09:29:58;5.03;;;1.53;;
22144;SDS011;11238;48.730;11.566;2023-07-13T09:32:37;4.15;;;1.30;;
22144;SDS011;11238;48.730;11.566;2023-07-13T09:35:30;4.47;;;1.20;;
22144;SDS011;11238;48.730;11.566;2023-07-13T09:37:57;3.65;;;1.20;;
22144;SDS011;11238;48.730;11.566;2023-07-13T09:43:26;4.68;;;1.40;;
22144;SDS011;11238;48.730;11.566;2023-07-13T09:45:54;4.07;;;1.27;;
22144;SDS011;11238;48.730;11.566;2023-07-13T09:48:21;5.95;;;1.10;;
22144;SDS011;11238;48.730;11.566;2023-07-13T09:50:46;4.95;;;1.60;;
22144;SDS011;11238;48.730;11.566;2023-07-13T09:53:18;2.33;;;1.20;;
22144;SDS011;11238;48.730;11.566;2023-07-13T09:55:45;4.05;;;1.10;;
22144;SDS011;11238;48.730;11.566;2023-07-13T09:58:25;7.20;;;1.33;;
22144;SDS011;11238;48.730;11.566;2023-07-13T10:00:55;1.80;;;1.00;;
22144;SDS011;11238;48.730;11.566;2023-07-13T10:03:27;5.03;;;1.10;;
22144;SDS011;11238;48.730;11.566;2023-07-13T10:06:00;2.55;;;1.10;;
22144;SDS011;11238;48.730;11.566;2023-07-13T10:08:35;7.25;;;1.38;;
22144;SDS011;11238;48.730;11.566;2023-07-13T10:11:12;4.30;;;1.52;;
22144;SDS011;11238;48.730;11.566;2023-07-13T10:13:54;3.30;;;1.30;;
22144;SDS011;11238;48.730;11.566;2023-07-13T10:16:50;6.05;;;1.30;;
22144;SDS011;11238;48.730;11.566;2023-07-13T10:22:02;2.75;;;1.27;;
22144;SDS011;11238;48.730;11.566;2023-07-13T10:24:38;4.80;;;1.52;;
22144;SDS011;11238;48.730;11.566;2023-07-13T10:32:34;6.90;;;1.30;;
22144;SDS011;11238;48.730;11.566;2023-07-13T10:35:01;4.82;;;1.77;;
22144;SDS011;11238;48.730;11.566;2023-07-13T10:37:35;3.10;;;1.33;;
22144;SDS011;11238;48.730;11.566;2023-07-13T10:40:06;4.63;;;1.20;;
22144;SDS011;11238;48.730;11.566;2023-07-13T10:42:40;1.20;;;1.10;;
22144;SDS011;11238;48.730;11.566;2023-07-13T10:45:14;6.93;;;1.45;;
22144;SDS011;11238;48.730;11.566;2023-07-13T10:47:47;3.55;;;1.40;;
22144;SDS011;11238;48.730;11.566;2023-07-13T10:50:19;6.38;;;1.52;;
22144;SDS011;11238;48.730;11.566;2023-07-13T10:52:49;3.70;;;1.20;;
22144;SDS011;11238;48.730;11.566;2023-07-13T10:58:14;3.70;;;1.33;;
22144;SDS011;11238;48.730;11.566;2023-07-13T11:06:18;5.28;;;1.27;;
22144;SDS011;11238;48.730;11.566;2023-07-13T11:09:28;7.50;;;1.40;;
22144;SDS011;11238;48.730;11.566;2023-07-13T11:12:10;4.47;;;1.80;;
22144;SDS011;11238;48.730;11.566;2023-07-13T11:22:45;4.03;;;1.55;;
22144;SDS011;11238;48.730;11.566;2023-07-13T11:27:50;5.38;;;1.33;;
22144;SDS011;11238;48.730;11.566;2023-07-13T11:30:22;3.53;;;1.15;;
22144;SDS011;11238;48.730;11.566;2023-07-13T11:32:51;2.30;;;1.20;;
22144;SDS011;11238;48.730;11.566;2023-07-13T11:35:27;5.28;;;1.50;;
22144;SDS011;11238;48.730;11.566;2023-07-13T11:37:53;3.83;;;1.50;;
22144;SDS011;11238;48.730;11.566;2023-07-13T11:40:21;5.22;;;1.17;;
22144;SDS011;11238;48.730;11.566;2023-07-13T11:42:58;4.35;;;1.30;;
22144;SDS011;11238;48.730;11.566;2023-07-13T11:45:26;3.75;;;1.13;;
22144;SDS011;11238;48.730;11.566;2023-07-13T11:47:53;3.40;;;1.30;;
22144;SDS011;11238;48.730;11.566;2023-07-13T11:50:23;4.00;;;1.70;;
22144;SDS011;11238;48.730;11.566;2023-07-13T11:52:52;4.53;;;1.15;;
22144;SDS011;11238;48.730;11.566;2023-07-13T11:55:21;3.40;;;1.23;;
22144;SDS011;11238;48.730;11.566;2023-07-13T11:57:59;6.50;;;1.10;;
22144;SDS011;11238;48.730;11.566;2023-07-13T12:00:29;2.90;;;1.10;;
22144;SDS011;11238;48.730;11.566;2023-07-13T12:02:59;3.30;;;1.40;;
22144;SDS011;11238;48.730;11.566;2023-07-13T12:05:28;5.25;;;1.30;;
22144;SDS011;11238;48.730;11.566;2023-07-13T12:07:56;2.78;;;1.20;;
22144;SDS011;11238;48.730;11.566;2023-07-13T12:10:27;3.50;;;1.50;;
22144;SDS011;11238;48.730;11.566;2023-07-13T12:15:23;5.78;;;1.25;;
22144;SDS011;11238;48.730;11.566;2023-07-13T12:17:56;4.25;;;1.20;;
22144;SDS011;11238;48.730;11.566;2023-07-13T12:20:26;3.38;;;1.60;;
22144;SDS011;11238;48.730;11.566;2023-07-13T12:22:54;4.25;;;1.33;;
22144;SDS011;11238;48.730;11.566;2023-07-13T12:25:20;4.82;;;1.55;;
22144;SDS011;11238;48.730;11.566;2023-07-13T12:27:49;5.28;;;1.20;;
22144;SDS011;11238;48.730;11.566;2023-07-13T12:33:00;4.28;;;1.33;;
22144;SDS011;11238;48.730;11.566;2023-07-13T12:35:48;4.25;;;1.33;;
22144;SDS011;11238;48.730;11.566;2023-07-13T12:38:17;2.00;;;1.30;;
22144;SDS011;11238;48.730;11.566;2023-07-13T12:40:46;4.90;;;1.10;;
22144;SDS011;11238;48.730;11.566;2023-07-13T12:43:16;3.38;;;1.42;;
22144;SDS011;11238;48.730;11.566;2023-07-13T12:46:01;2.72;;;1.30;;
22144;SDS011;11238;48.730;11.566;2023-07-13T12:48:42;2.45;;;1.20;;
22144;SDS011;11238;48.730;11.566;2023-07-13T12:51:11;4.53;;;1.27;;
22144;SDS011;11238;48.730;11.566;2023-07-13T12:53:43;3.28;;;1.20;;
22144;SDS011;11238;48.730;11.566;2023-07-13T12:56:22;2.97;;;1.10;;
22144;SDS011;11238;48.730;11.566;2023-07-13T12:58:57;9.35;;;1.27;;
22144;SDS011;11238;48.730;11.566;2023-07-13T13:01:27;3.20;;;1.23;;
22144;SDS011;11238;48.730;11.566;2023-07-13T13:03:54;4.97;;;1.23;;
22144;SDS011;11238;48.730;11.566;2023-07-13T13:06:27;3.53;;;1.30;;
22144;SDS011;11238;48.730;11.566;2023-07-13T13:08:55;3.25;;;1.30;;
22144;SDS011;11238;48.730;11.566;2023-07-13T13:11:26;2.45;;;1.05;;
22144;SDS011;11238;48.730;11.566;2023-07-13T13:13:52;3.45;;;1.20;;
22144;SDS011;11238;48.730;11.566;2023-07-13T13:16:23;7.20;;;1.40;;
22144;SDS011;11238;48.730;11.566;2023-07-13T13:18:58;3.38;;;1.17;;
22144;SDS011;11238;48.730;11.566;2023-07-13T13:21:27;2.15;;;1.15;;
22144;SDS011;11238;48.730;11.566;2023-07-13T13:23:53;6.05;;;1.40;;
22144;SDS011;11238;48.730;11.566;2023-07-13T13:26:23;2.90;;;1.20;;
22144;SDS011;11238;48.730;11.566;2023-07-13T13:28:49;1.83;;;1.10;;
22144;SDS011;11238;48.730;11.566;2023-07-13T13:31:15;3.88;;;1.02;;
22144;SDS011;11238;48.730;11.566;2023-07-13T13:33:42;2.33;;;1.05;;
22144;SDS011;11238;48.730;11.566;2023-07-13T13:36:20;1.70;;;1.08;;
22144;SDS011;11238;48.730;11.566;2023-07-13T13:38:49;2.63;;;1.42;;
22144;SDS011;11238;48.730;11.566;2023-07-13T13:41:15;4.43;;;1.10;;
22144;SDS011;11238;48.730;11.566;2023-07-13T13:43:42;3.85;;;1.27;;
22144;SDS011;11238;48.730;11.566;2023-07-13T13:46:17;3.08;;;1.05;;
22144;SDS011;11238;48.730;11.566;2023-07-13T13:48:46;3.85;;;1.20;;
22144;SDS011;11238;48.730;11.566;2023-07-13T13:51:16;5.65;;;1.15;;
22144;SDS011;11238;48.730;11.566;2023-07-13T13:53:44;2.10;;;1.10;;
22144;SDS011;11238;48.730;11.566;2023-07-13T13:56:11;2.28;;;1.08;;
22144;SDS011;11238;48.730;11.566;2023-07-13T13:58:38;4.13;;;1.20;;
22144;SDS011;11238;48.730;11.566;2023-07-13T14:01:04;3.03;;;1.20;;
22144;SDS011;11238;48.730;11.566;2023-07-13T14:03:36;3.78;;;1.40;;
22144;SDS011;11238;48.730;11.566;2023-07-13T14:06:02;3.42;;;1.40;;
22144;SDS011;11238;48.730;11.566;2023-07-13T14:08:28;3.22;;;1.10;;
22144;SDS011;11238;48.730;11.566;2023-07-13T14:10:55;2.00;;;1.13;;
22144;SDS011;11238;48.730;11.566;2023-07-13T14:13:24;2.35;;;1.10;;
22144;SDS011;11238;48.730;11.566;2023-07-13T14:15:53;2.47;;;1.15;;
22144;SDS011;11238;48.730;11.566;2023-07-13T14:18:19;4.43;;;1.00;;
22144;SDS011;11238;48.730;11.566;2023-07-13T14:20:46;4.20;;;1.20;;
22144;SDS011;11238;48.730;11.566;2023-07-13T14:23:14;3.47;;;1.30;;
22144;SDS011;11238;48.730;11.566;2023-07-13T14:25:41;2.17;;;1.13;;
22144;SDS011;11238;48.730;11.566;2023-07-13T14:28:26;2.58;;;1.05;;
22144;SDS011;11238;48.730;11.566;2023-07-13T14:30:53;5.45;;;1.30;;
22144;SDS011;11238;48.730;11.566;2023-07-13T14:33:22;2.90;;;1.05;;
22144;SDS011;11238;48.730;11.566;2023-07-13T14:35:49;4.82;;;1.25;;
22144;SDS011;11238;48.730;11.566;2023-07-13T14:38:17;4.70;;;1.00;;
22144;SDS011;11238;48.730;11.566;2023-07-13T14:40:46;2.30;;;1.20;;
22144;SDS011;11238;48.730;11.566;2023-07-13T14:43:15;2.13;;;0.90;;
22144;SDS011;11238;48.730;11.566;2023-07-13T14:45:51;2.33;;;1.10;;
22144;SDS011;11238;48.730;11.566;2023-07-13T14:48:22;1.90;;;1.05;;
22144;SDS011;11238;48.730;11.566;2023-07-13T14:50:56;3.17;;;1.05;;
22144;SDS011;11238;48.730;11.566;2023-07-13T14:54:03;4.68;;;1.10;;
22144;SDS011;11238;48.730;11.566;2023-07-13T14:56:31;2.78;;;1.08;;
22144;SDS011;11238;48.730;11.566;2023-07-13T14:58:57;3.42;;;0.98;;
22144;SDS011;11238;48.730;11.566;2023-07-13T15:01:23;3.47;;;1.15;;
22144;SDS011;11238;48.730;11.566;2023-07-13T15:03:51;1.92;;;1.00;;
22144;SDS011;11238;48.730;11.566;2023-07-13T15:06:18;5.03;;;1.20;;
22144;SDS011;11238;48.730;11.566;2023-07-13T15:08:45;5.63;;;1.60;;
22144;SDS011;11238;48.730;11.566;2023-07-13T15:11:11;2.17;;;1.10;;
22144;SDS011;11238;48.730;11.566;2023-07-13T15:13:38;1.77;;;1.10;;
22144;SDS011;11238;48.730;11.566;2023-07-13T15:16:16;3.67;;;1.35;;
22144;SDS011;11238;48.730;11.566;2023-07-13T15:18:46;3.50;;;1.15;;
22144;SDS011;11238;48.730;11.566;2023-07-13T15:21:14;2.05;;;1.00;;
22144;SDS011;11238;48.730;11.566;2023-07-13T15:23:46;4.45;;;1.40;;
22144;SDS011;11238;48.730;11.566;2023-07-13T15:26:13;2.60;;;1.00;;
22144;SDS011;11238;48.730;11.566;2023-07-13T15:28:40;1.77;;;0.90;;
22144;SDS011;11238;48.730;11.566;2023-07-13T15:31:23;2.50;;;1.10;;
22144;SDS011;11238;48.730;11.566;2023-07-13T15:33:52;2.17;;;1.13;;
22144;SDS011;11238;48.730;11.566;2023-07-13T15:36:53;6.97;;;1.50;;
22144;SDS011;11238;48.730;11.566;2023-07-13T15:39:49;3.38;;;1.10;;
22144;SDS011;11238;48.730;11.566;2023-07-13T15:42:45;3.80;;;0.90;;
22144;SDS011;11238;48.730;11.566;2023-07-13T15:45:22;2.80;;;1.20;;
22144;SDS011;11238;48.730;11.566;2023-07-13T15:47:50;4.00;;;1.08;;
22144;SDS011;11238;48.730;11.566;2023-07-13T15:50:17;2.85;;;1.20;;
22144;SDS011;11238;48.730;11.566;2023-07-13T15:52:49;2.13;;;1.00;;
22144;SDS011;11238;48.730;11.566;2023-07-13T15:55:17;3.03;;;0.95;;